Nearby METAR Reports

 

KSJC - San Jose, California, USA
Distance from station: NE 9mi, 14km
Updated: Wed, 21-Apr-2021 9:53am PDT
Few Clouds
Few Clouds
 Wind from SSE
Wind: SSE 8 mph , 13 km/h
Temperature: 57°F , 14°C
Dew Point: 45°F , 7°C
Humidity: 63%
Barometer: 29.90 inHg , 1012.5 hPa
Clouds: Few Clouds
Visibility: 10 miles , 16 km
Cloud details: Few Clouds 600 ft
Few Clouds 2400 ft
2021/04/21 16:53 KSJC 211653Z 15007KT 10SM FEW006 FEW024 14/07 A2990 RMK AO2 SLP123 T01390072
KRHV - San Jose/Reid, California, USA
Distance from station: ENE 12mi, 19km
Updated: Wed, 21-Apr-2021 9:47am PDT
Few Clouds
Few Clouds
 Wind from S
Wind: S 10 mph , 17 km/h
Temperature: 57°F , 14°C
Dew Point: 46°F , 8°C
Humidity: 67%
Barometer: 29.90 inHg , 1012.5 hPa
Clouds: Few Clouds
Visibility: 10 miles , 16 km
Cloud details: Few Clouds 1900 ft
2021/04/21 16:47 KRHV 211647Z 17009KT 10SM FEW0199 14/08 A2990
 
KPAO - Palo Alto, California, USA
Distance from station: NNW 14mi, 23km
Updated: Wed, 21-Apr-2021 9:47am PDT
Few Clouds
Few Clouds
 Wind from varies
Wind: varies 6 mph , 9 km/h
Temperature: 55°F , 13°C
Dew Point: 46°F , 8°C
Humidity: 72%
Barometer: 29.90 inHg , 1012.5 hPa
Clouds: Few Clouds
Visibility: 10 miles , 16 km
Cloud details: Few Clouds 4000 ft
2021/04/21 16:47 KPAO 211647Z VRB05KT 10SM FEW040 13/08 A2990
KOAK - Oakland, California, USA
Distance from station: NNW 31mi, 50km
Updated: Wed, 21-Apr-2021 10:32am PDT
Partly cloudy
Partly cloudy
 Wind from WSW
Wind: WSW 6 mph , 9 km/h
Temperature: 55°F , 13°C
Dew Point: 46°F , 8°C
Humidity: 72%
Barometer: 29.91 inHg , 1012.9 hPa
Clouds: Partly cloudy
Visibility: 10 miles , 16 km
Cloud details: Few Clouds 1000 ft
Partly cloudy 1300 ft
2021/04/21 17:32 KOAK 211732Z 24005KT 10SM FEW010 SCT013 13/08 A2991 RMK AO2 T01280083
 
KSQL - San Carlos Airpo, California, USA
Distance from station: NW 21mi, 34km
Updated: Wed, 21-Apr-2021 9:58am PDT
Few Clouds
Few Clouds
 Wind from varies
Wind: varies 3 mph , 6 km/h
Temperature: 55°F , 13°C
Dew Point: 46°F , 8°C
Humidity: 72%
Barometer: 29.91 inHg , 1012.9 hPa
Clouds: Few Clouds
Visibility: 10 miles , 16 km
Cloud details: Few Clouds 1300 ft
2021/04/21 16:58 KSQL 211658Z VRB03KT 10SM FEW013 13/08 A2991
KSFO - San Francisco, California, USA
Distance from station: NW 30mi, 49km
Updated: Wed, 21-Apr-2021 10:26am PDT
Partly cloudy
Partly cloudy
 Wind from NNW
Wind: NNW 9 mph , 15 km/h
Temperature: 57°F , 14°C
Dew Point: 46°F , 8°C
Humidity: 67%
Barometer: 29.90 inHg , 1012.5 hPa
Clouds: Partly cloudy
Visibility: 9 miles , 14 km
Cloud details: Few Clouds 900 ft
Partly cloudy 1500 ft
2021/04/21 17:26 KSFO 211726Z 33008KT 9SM FEW009 SCT015 14/08 A2990 RMK AO2 T01440083
 
KE16 - San Martin, California, USA
Distance from station: ESE 27mi, 43km
Updated: Wed, 21-Apr-2021 10:35am PDT
Overcast
Overcast
 Wind from ESE
Wind: ESE 9 mph , 15 km/h
Temperature: 54°F , 12°C
Dew Point: 46°F , 8°C
Humidity: 77%
Barometer: 29.94 inHg , 1013.9 hPa
Clouds: Overcast
Visibility: 10 miles , 16 km
Cloud details: Overcast 1500 ft
2021/04/21 17:35 KE16 211735Z AUTO 12008KT 10SM OVC015 12/08 A2994 RMK AO2 PWINO PNO
KWVI - Watsonville, California, USA
Distance from station: SSE 27mi, 44km
Updated: Wed, 21-Apr-2021 10:22am PDT
Overcast
Overcast
 Wind from S
Wind: S 6 mph , 9 km/h
Temperature: 52°F , 11°C
Dew Point: 46°F , 8°C
Humidity: 82%
Barometer: 29.94 inHg , 1013.9 hPa
Clouds: Overcast
Visibility: 10 miles , 16 km
Cloud details: Overcast 1000 ft
2021/04/21 17:22 KWVI 211722Z AUTO 18005KT 10SM OVC010 11/08 A2994 RMK AO2 T01110083 $
 
KHAF - Half Moon Bay, California, USA
Distance from station: WNW 31mi, 50km
Updated: Wed, 21-Apr-2021 10:35am PDT
Mist, Partly cloudy
Mist, Partly cloudy
 Wind from S
Wind: S 6 mph , 9 km/h
Temperature: 48°F , 9°C
Wind Chill: 45°F , 7°C
Dew Point: 48°F , 9°C
Humidity: 100%
Barometer: 29.94 inHg , 1013.9 hPa
Summary: Mist
Clouds: Partly cloudy
Visibility: 1 1/4 miles , 2 km
Cloud details: Partly cloudy 500 ft
2021/04/21 17:35 KHAF 211735Z AUTO 19005KT 1 1/4SM BR SCT005 09/09 A2994 RMK AO2
KHWD - Hayward, California, USA
Distance from station: N 28mi, 44km
Updated: Wed, 21-Apr-2021 10:22am PDT
Few Clouds
Few Clouds
 Wind from W
Wind: W 7 mph , 11 km/h
Temperature: 55°F , 13°C
Dew Point: 46°F , 8°C
Humidity: 72%
Barometer: 29.90 inHg , 1012.5 hPa
Clouds: Few Clouds
Visibility: 10 miles , 16 km
Cloud details: Few Clouds 1700 ft
2021/04/21 17:22 KHWD 211722Z 27006KT 10SM FEW017 13/08 A2990 RMK AO2 T01330078
 
KLVK - Livermore, California, USA
Distance from station: NNE 31mi, 51km
Updated: Wed, 21-Apr-2021 9:53am PDT
Clear
Clear
 Wind from varies
Wind: varies 3 mph , 6 km/h
Temperature: 57°F , 14°C
Dew Point: 46°F , 8°C
Humidity: 67%
Barometer: 29.88 inHg , 1011.9 hPa
Clouds: Clear
Visibility: 10 miles , 16 km
2021/04/21 16:53 KLVK 211653Z VRB03KT 10SM CLR 14/08 A2988 RMK AO2 SLP115 T01390078